This is the latest recevied weather packets stored in our database for station/object DC1NF-7. If no packets are shown the sender has not sent any weather packets the latest 10 day(s).
| Time | Temp. | Humidity | Pressure | Rain* | Wind** | Luminosity | Snow |
|---|---|---|---|---|---|---|---|
| 1777266949 | 3.33° C | 78% | 1023.5 hPa | 0 mm | - | 74 W/m² | - |
| 1777266345 | 2.22° C | 82% | 1023.4 hPa | 0 mm | - | 52 W/m² | - |
| 1777265740 | 1.67° C | 85% | 1023.3 hPa | 0 mm | - | 38 W/m² | - |
| 1777265136 | 1.11° C | 86% | 1023.3 hPa | 0 mm | - | 29 W/m² | - |
| 1777264538 | 0.56° C | 87% | 1023.2 hPa | 0 mm | - | 19 W/m² | - |
| 1777263934 | 0.56° C | 87% | 1023.2 hPa | 0 mm | - | 12 W/m² | - |
| 1777263326 | 1.11° C | 86% | 1023.1 hPa | 0 mm | - | 7 W/m² | - |
| 1777262723 | 0.56° C | 87% | 1023.3 hPa | 0 mm | - | 3 W/m² | - |
| 1777262123 | 0.56° C | 88% | 1023.3 hPa | 0 mm | - | 1 W/m² | - |
| 1777261517 | 0.56° C | 87% | 1023.3 hPa | 0 mm | - | 0 W/m² | - |
| 1777260973 | 0.56° C | 86% | 1023.1 hPa | 0 mm | - | 0 W/m² | - |
| 1777260369 | 1.11° C | 87% | 1023.2 hPa | 0 mm | - | 0 W/m² | - |
| 1777259765 | 0.56° C | 86% | 1023.1 hPa | 0 mm | - | 0 W/m² | - |
| 1777259162 | 1.11° C | 86% | 1023.1 hPa | 0 mm | - | 0 W/m² | - |
| 1777258558 | 1.11° C | 87% | 1023.2 hPa | 0 mm | - | 0 W/m² | - |
| 1777257955 | 1.11° C | 86% | 1023.2 hPa | 0 mm | - | 0 W/m² | - |
| 1777257355 | 1.67° C | 84% | 1023.2 hPa | 0 mm | - | 0 W/m² | - |
| 1777256752 | 1.67° C | 85% | 1023.3 hPa | 0 mm | - | 0 W/m² | - |
| 1777256146 | 1.11° C | 84% | 1023.3 hPa | 0 mm | - | 0 W/m² | - |
| 1777255538 | 1.67° C | 82% | 1023.3 hPa | 0 mm | - | 0 W/m² | - |
| 1777254937 | 2.22° C | 81% | 1023.2 hPa | 0 mm | - | 0 W/m² | - |
| 1777254333 | 2.22° C | 82% | 1023.4 hPa | 0 mm | - | 0 W/m² | - |
| 1777253729 | 2.22° C | 80% | 1023.4 hPa | 0 mm | - | 0 W/m² | - |
| 1777253126 | 2.78° C | 79% | 1023.5 hPa | 0 mm | - | 0 W/m² | - |
| 1777252523 | 2.78° C | 78% | 1023.5 hPa | 0 mm | - | 0 W/m² | - |
* Rain latest hour (hover to see other rain measurements)
** Current wind speed in m/s (hover to see current wind gust speed)